Youngstown Warren Regional Airport Youngstown,Warren US
ICAO: KYNG
IATA: YNG
Category: Medium
Scheduled Services: No

Elevation: 1192 ft
TransAlt. 18000 ft.

Airport Communications:
APP/DEP:127.15
ATIS:123.75
CLNC DEL:118.25
GND:121.9
910 AW COMD POST:23.882
CLEVELAND RDO:122.2
TWR:119.5
UNICOM:122.95

KYNG Zoom In..

If you have problems with the map follow the link
https://www.worldairports.se/pages/airport.php?
ICAO=KYNG

Runways:

(A) RW 05 length 5002 ft width 150 ft
---- / hdg 53

(B) RW 14 length 9003 ft width 150 ft
ILS 110.10 / hdg 143

(C) RW 23 length 5002 ft width 150 ft
---- / hdg 233

(D) RW 32 length 9003 ft width 150 ft
ILS 110.10 / hdg 323

Location; KYNG
Day. 25 / Time. 08.51 Zulu
* Altimeter: 29.82
* Temperature: 06° c. 42.8°f.
* Wind from: 130° Speed 07 kn.
Dewpoint: 04° c.
Visibility: 10 Statute Miles.
Clouds: Broken 500 ft.
Clouds: Broken 4700 ft.
Clouds: Overcast 8000 ft.

KYNG 250851Z 13007KT 10SM BKN005 BKN047 OVC080 06/04 A2982 RMK AO2 SLP104 60000 T00560039 56010


Wind From 130°
Speed 07 kn.

 
 
jpsmedia worldairports.se 2020   terms of use